createdAt,value
2019-03-31T00:01:22.604Z,99.90
2019-03-31T00:03:52.364Z,99.90
2019-03-31T00:06:21.789Z,99.90
2019-03-31T00:08:51.161Z,99.90
2019-03-31T00:11:20.629Z,99.90
2019-03-31T00:13:50.153Z,99.90
2019-03-31T00:16:19.680Z,99.90
2019-03-31T00:18:49.176Z,99.90
2019-03-31T00:21:18.641Z,99.90
2019-03-31T00:23:48.143Z,99.90
2019-03-31T00:26:17.727Z,99.90
2019-03-31T00:28:47.217Z,99.90
2019-03-31T00:31:22.279Z,99.90
2019-03-31T00:33:48.418Z,99.90
2019-03-31T00:36:18.024Z,99.90
2019-03-31T00:38:47.537Z,99.90
2019-03-31T00:41:17.052Z,99.90
2019-03-31T00:43:49.291Z,99.90
2019-03-31T00:46:18.741Z,99.90
2019-03-31T00:48:48.151Z,99.90
2019-03-31T00:51:17.589Z,99.90
2019-03-31T00:54:06.098Z,99.90
2019-03-31T00:56:36.629Z,99.90
2019-03-31T00:59:06.039Z,99.90
2019-03-31T01:01:42.333Z,99.90
2019-03-31T01:04:11.878Z,99.90
2019-03-31T01:06:41.800Z,99.90
2019-03-31T01:09:24.156Z,99.90
2019-03-31T01:11:54.285Z,99.90
2019-03-31T01:14:23.989Z,99.90
2019-03-31T01:16:54.416Z,99.90
2019-03-31T01:19:24.759Z,99.90
2019-03-31T01:21:54.136Z,99.90
2019-03-31T01:24:23.777Z,99.90
2019-03-31T01:26:53.346Z,99.90
2019-03-31T01:29:23.273Z,99.90
2019-03-31T01:31:53.869Z,99.90
2019-03-31T01:34:23.992Z,99.90
2019-03-31T01:36:53.499Z,99.90
2019-03-31T01:39:24.767Z,99.90
2019-03-31T01:41:54.211Z,99.90
2019-03-31T01:44:23.659Z,99.90
2019-03-31T01:46:53.288Z,99.90
2019-03-31T01:49:22.683Z,99.90
2019-03-31T01:51:52.140Z,99.90
2019-03-31T01:54:21.572Z,99.90
2019-03-31T01:56:50.972Z,99.90
2019-03-31T01:59:20.364Z,99.90
2019-03-31T02:02:03.300Z,99.90
2019-03-31T02:04:21.055Z,99.90
2019-03-31T02:06:50.419Z,99.90
2019-03-31T02:09:20.571Z,99.90
2019-03-31T02:11:49.940Z,99.90
2019-03-31T02:14:19.570Z,99.90
2019-03-31T02:16:49.068Z,99.90
2019-03-31T02:19:18.431Z,99.90
2019-03-31T02:21:47.827Z,99.90
2019-03-31T02:24:17.288Z,99.90
2019-03-31T02:26:46.655Z,99.90
2019-03-31T02:29:16.140Z,99.90
2019-03-31T02:31:45.671Z,99.90
2019-03-31T02:34:15.048Z,99.90
2019-03-31T02:36:44.578Z,99.90
2019-03-31T02:39:14.070Z,99.90
2019-03-31T02:41:43.442Z,99.90
2019-03-31T02:44:13.004Z,99.90
2019-03-31T02:46:42.464Z,99.90
2019-03-31T02:49:11.981Z,99.90
2019-03-31T02:51:41.527Z,99.90
2019-03-31T02:54:11.196Z,99.90
2019-03-31T02:56:43.957Z,99.90
2019-03-31T02:59:15.732Z,99.90
2019-03-31T03:01:45.869Z,99.90
2019-03-31T03:04:17.200Z,99.90
2019-03-31T03:06:49.826Z,99.90
2019-03-31T03:09:21.390Z,99.90
2019-03-31T03:11:53.718Z,99.90
2019-03-31T03:14:26.701Z,99.90
2019-03-31T03:16:56.314Z,99.90
2019-03-31T03:19:25.833Z,99.90
2019-03-31T03:21:55.279Z,99.90
2019-03-31T03:24:24.731Z,99.90
2019-03-31T03:26:54.182Z,99.90
2019-03-31T03:29:23.599Z,99.90
2019-03-31T03:31:52.979Z,99.90
2019-03-31T03:34:22.443Z,99.90
2019-03-31T03:36:51.801Z,99.90
2019-03-31T03:39:21.170Z,99.90
2019-03-31T03:41:50.552Z,99.90
2019-03-31T03:44:19.995Z,99.90
2019-03-31T03:46:49.437Z,99.90
2019-03-31T03:49:18.873Z,99.90
2019-03-31T03:51:48.529Z,99.90
2019-03-31T03:54:17.966Z,99.90
2019-03-31T03:56:47.454Z,99.90
2019-03-31T03:59:16.981Z,99.90
2019-03-31T04:01:46.443Z,99.90
2019-03-31T04:04:15.820Z,99.90
2019-03-31T04:06:45.173Z,99.90
2019-03-31T04:09:14.626Z,99.90
2019-03-31T04:11:43.977Z,99.90
2019-03-31T04:14:13.542Z,99.90
2019-03-31T04:16:42.987Z,99.90
2019-03-31T04:19:12.369Z,99.90
2019-03-31T04:21:41.740Z,99.90
2019-03-31T04:24:11.133Z,99.90
2019-03-31T04:26:40.568Z,99.90
2019-03-31T04:29:09.941Z,99.90
2019-03-31T04:31:39.301Z,99.90
2019-03-31T04:34:08.752Z,99.90
2019-03-31T04:36:38.114Z,99.90
2019-03-31T04:39:08.087Z,99.90
2019-03-31T04:41:37.499Z,99.90
2019-03-31T04:44:07.019Z,99.90
2019-03-31T04:46:36.488Z,99.90
2019-03-31T04:49:05.865Z,99.90
2019-03-31T04:51:35.240Z,99.90
2019-03-31T04:54:04.819Z,99.90
2019-03-31T04:56:34.244Z,99.90
2019-03-31T04:59:03.729Z,99.90
2019-03-31T05:01:33.080Z,99.90
2019-03-31T05:04:05.083Z,99.90
2019-03-31T05:06:33.650Z,99.90
2019-03-31T05:09:04.747Z,99.90
2019-03-31T05:11:34.144Z,99.90
2019-03-31T05:14:03.622Z,99.90
2019-03-31T05:16:33.020Z,99.90
2019-03-31T05:19:02.544Z,99.90
2019-03-31T05:21:31.966Z,99.90
2019-03-31T05:24:01.379Z,99.90
2019-03-31T05:26:30.820Z,99.90
2019-03-31T05:29:00.287Z,99.90
2019-03-31T05:31:29.728Z,99.90
2019-03-31T05:33:59.101Z,99.90
2019-03-31T05:36:28.550Z,99.90
2019-03-31T05:38:57.991Z,99.90
2019-03-31T05:41:27.356Z,99.90
2019-03-31T05:44:05.528Z,99.90
2019-03-31T05:46:27.993Z,99.90
2019-03-31T05:48:57.357Z,99.90
2019-03-31T05:51:26.724Z,99.90
2019-03-31T05:53:56.102Z,99.90
2019-03-31T05:56:25.600Z,99.90
2019-03-31T05:58:55.077Z,99.90
2019-03-31T06:01:24.812Z,99.90
2019-03-31T06:03:54.361Z,99.90
2019-03-31T06:06:23.736Z,99.90
2019-03-31T06:08:53.184Z,99.90
2019-03-31T06:11:22.647Z,99.90
2019-03-31T06:13:52.205Z,99.90
2019-03-31T06:16:21.673Z,99.90
2019-03-31T06:18:51.127Z,99.90
2019-03-31T06:21:20.500Z,99.90
2019-03-31T06:23:49.891Z,99.90
2019-03-31T06:26:19.353Z,99.90
2019-03-31T06:28:48.724Z,99.90
2019-03-31T06:31:18.107Z,99.90
2019-03-31T06:33:47.467Z,99.90
2019-03-31T06:36:16.856Z,99.90
2019-03-31T06:38:51.375Z,99.90
2019-03-31T06:41:20.762Z,99.90
2019-03-31T06:43:50.130Z,99.90
2019-03-31T06:46:19.687Z,99.90
2019-03-31T06:48:49.078Z,99.90
2019-03-31T06:51:18.464Z,99.90
2019-03-31T06:53:47.854Z,99.90
2019-03-31T06:56:17.271Z,99.90
2019-03-31T06:58:46.659Z,99.90
2019-03-31T07:01:16.041Z,99.90
2019-03-31T07:03:45.403Z,99.90
2019-03-31T07:06:14.776Z,99.90
2019-03-31T07:08:44.148Z,99.90
2019-03-31T07:11:13.557Z,99.90
2019-03-31T07:13:43.013Z,99.90
2019-03-31T07:16:12.582Z,99.90
2019-03-31T07:18:42.019Z,99.90
2019-03-31T07:21:11.414Z,99.90
2019-03-31T07:23:40.800Z,99.90
2019-03-31T07:26:10.423Z,99.90
2019-03-31T07:28:39.873Z,99.90
2019-03-31T07:31:09.284Z,99.90
2019-03-31T07:33:38.734Z,99.90
2019-03-31T07:36:08.109Z,99.90
2019-03-31T07:38:39.286Z,99.90
2019-03-31T07:41:12.947Z,99.90
2019-03-31T07:43:39.839Z,99.30
2019-03-31T07:46:09.240Z,98.00
2019-03-31T07:48:38.671Z,96.40
2019-03-31T07:51:08.123Z,95.00
2019-03-31T07:53:37.516Z,94.40
2019-03-31T07:56:06.916Z,93.90
2019-03-31T07:58:36.420Z,92.50
2019-03-31T08:01:05.830Z,90.80
2019-03-31T08:04:13.166Z,88.20
2019-03-31T08:06:42.672Z,86.20
2019-03-31T08:09:12.064Z,83.50
2019-03-31T08:11:41.446Z,81.70
2019-03-31T08:14:10.881Z,80.20
2019-03-31T08:16:40.291Z,78.40
2019-03-31T08:19:09.752Z,76.40
2019-03-31T08:21:39.293Z,75.90
2019-03-31T08:24:11.154Z,75.10
2019-03-31T08:26:40.920Z,71.40
2019-03-31T08:29:10.504Z,71.70
2019-03-31T08:31:39.928Z,71.00
2019-03-31T08:34:09.420Z,72.30
2019-03-31T08:36:38.964Z,68.20
2019-03-31T08:39:09.363Z,67.90
2019-03-31T08:41:40.094Z,67.60
2019-03-31T08:44:09.600Z,67.10
2019-03-31T08:46:39.089Z,66.40
2019-03-31T08:49:08.732Z,67.90
2019-03-31T08:51:42.176Z,66.10
2019-03-31T08:54:11.645Z,66.20
2019-03-31T08:56:44.102Z,65.70
2019-03-31T08:59:13.550Z,65.20
2019-03-31T09:01:43.817Z,64.50
2019-03-31T09:04:13.420Z,64.20
2019-03-31T09:06:42.889Z,64.20
2019-03-31T09:09:12.444Z,60.00
2019-03-31T09:11:41.888Z,60.70
2019-03-31T09:14:11.388Z,59.60
2019-03-31T09:16:41.068Z,59.40
2019-03-31T09:19:10.483Z,58.80
2019-03-31T09:21:39.932Z,59.30
2019-03-31T09:24:09.417Z,59.00
2019-03-31T09:26:41.305Z,57.00
2019-03-31T09:29:10.791Z,57.30
2019-03-31T09:31:40.325Z,56.50
2019-03-31T09:34:09.830Z,55.30
2019-03-31T09:36:39.334Z,54.80
2019-03-31T09:39:08.796Z,55.00
2019-03-31T09:41:38.358Z,53.40
2019-03-31T09:44:07.923Z,54.30
2019-03-31T09:46:37.600Z,53.40
2019-03-31T09:49:07.020Z,51.50
2019-03-31T09:51:36.895Z,51.70
2019-03-31T09:54:06.595Z,48.40
2019-03-31T09:56:36.123Z,48.10
2019-03-31T09:59:05.644Z,49.70
2019-03-31T10:01:35.177Z,51.30
2019-03-31T10:04:04.764Z,50.60
2019-03-31T10:06:34.514Z,52.20
2019-03-31T10:09:05.881Z,50.50
2019-03-31T10:11:40.964Z,49.90
2019-03-31T10:14:10.495Z,49.90
2019-03-31T10:16:40.082Z,52.40
2019-03-31T10:19:09.673Z,50.40
2019-03-31T10:21:39.173Z,48.90
2019-03-31T10:24:08.785Z,48.80
2019-03-31T10:26:38.255Z,49.20
2019-03-31T10:29:07.647Z,46.70
2019-03-31T10:31:37.217Z,46.00
2019-03-31T10:34:06.788Z,45.80
2019-03-31T10:36:44.397Z,46.70
2019-03-31T10:39:08.963Z,45.50
2019-03-31T10:41:38.963Z,45.40
2019-03-31T10:44:08.582Z,45.00
2019-03-31T10:46:39.588Z,47.00
2019-03-31T10:49:09.302Z,45.40
2019-03-31T10:51:38.847Z,44.50
2019-03-31T10:54:08.496Z,46.10
2019-03-31T10:56:38.060Z,45.30
2019-03-31T10:59:07.639Z,45.30
2019-03-31T11:01:37.826Z,46.50
2019-03-31T11:04:07.300Z,46.90
2019-03-31T11:06:36.768Z,45.60
2019-03-31T11:09:07.947Z,46.90
2019-03-31T11:11:37.430Z,45.70
2019-03-31T11:14:09.865Z,45.60
2019-03-31T11:16:39.272Z,45.10
2019-03-31T11:19:08.838Z,44.30
2019-03-31T11:22:03.589Z,44.30
2019-03-31T11:24:33.043Z,44.80
2019-03-31T11:27:02.447Z,43.10
2019-03-31T11:29:31.840Z,43.50
2019-03-31T11:32:01.246Z,44.10
2019-03-31T11:34:30.648Z,44.30
2019-03-31T11:37:12.855Z,44.40
2019-03-31T11:39:31.526Z,44.50
2019-03-31T11:42:00.944Z,43.10
2019-03-31T11:44:31.947Z,43.50
2019-03-31T11:47:05.984Z,42.90
2019-03-31T11:49:35.427Z,42.80
2019-03-31T11:52:05.057Z,42.80
2019-03-31T11:54:34.741Z,42.80
2019-03-31T11:57:04.929Z,43.20
2019-03-31T11:59:35.115Z,42.40
2019-03-31T12:02:04.821Z,42.50
2019-03-31T12:04:34.496Z,43.70
2019-03-31T12:07:04.214Z,44.70
2019-03-31T12:09:33.848Z,44.60
2019-03-31T12:12:07.313Z,44.10
2019-03-31T12:14:36.995Z,44.70
2019-03-31T12:17:06.570Z,44.60
2019-03-31T12:19:37.136Z,44.90
2019-03-31T12:22:06.817Z,45.30
2019-03-31T12:24:38.242Z,45.30
2019-03-31T12:27:07.673Z,45.40
2019-03-31T12:29:37.256Z,45.90
2019-03-31T12:32:06.649Z,44.80
2019-03-31T12:34:36.173Z,43.80
2019-03-31T12:37:05.780Z,45.60
2019-03-31T12:39:35.425Z,44.70
2019-03-31T12:42:05.109Z,45.60
2019-03-31T12:44:34.541Z,45.10
2019-03-31T12:47:04.188Z,44.00
2019-03-31T12:49:33.867Z,43.80
2019-03-31T12:52:03.503Z,44.10
2019-03-31T12:54:32.909Z,44.00
2019-03-31T12:57:02.520Z,44.40
2019-03-31T12:59:32.480Z,45.00
2019-03-31T13:02:02.076Z,43.00
2019-03-31T13:04:31.572Z,42.90
2019-03-31T13:07:00.989Z,44.80
2019-03-31T13:09:30.489Z,44.70
2019-03-31T13:11:59.960Z,43.00
2019-03-31T13:14:29.389Z,43.20
2019-03-31T13:17:01.407Z,42.40
2019-03-31T13:19:32.927Z,42.70
2019-03-31T13:22:02.532Z,43.50
2019-03-31T13:24:31.967Z,43.00
2019-03-31T13:27:01.497Z,43.80
2019-03-31T13:29:30.915Z,42.10
2019-03-31T13:32:00.303Z,42.20
2019-03-31T13:34:29.833Z,43.00
2019-03-31T13:36:59.256Z,42.40
2019-03-31T13:39:28.681Z,42.40
2019-03-31T13:41:58.216Z,42.20
2019-03-31T13:44:28.604Z,42.70
2019-03-31T13:46:58.036Z,42.60
2019-03-31T13:49:27.672Z,42.60
2019-03-31T13:51:57.182Z,42.70
2019-03-31T13:54:26.678Z,42.50
2019-03-31T13:56:56.705Z,43.70
2019-03-31T13:59:26.663Z,42.90
2019-03-31T14:01:56.253Z,42.00
2019-03-31T14:04:25.789Z,41.60
2019-03-31T14:06:55.301Z,41.70
2019-03-31T14:09:24.861Z,41.50
2019-03-31T14:11:54.354Z,41.80
2019-03-31T14:14:23.844Z,41.30
2019-03-31T14:16:53.399Z,42.30
2019-03-31T14:19:22.973Z,42.30
2019-03-31T14:21:52.477Z,42.30
2019-03-31T14:24:21.917Z,41.20
2019-03-31T14:26:51.397Z,41.50
2019-03-31T14:29:20.877Z,41.50
2019-03-31T14:31:52.166Z,41.00
2019-03-31T14:34:21.742Z,41.20
2019-03-31T14:36:51.337Z,41.00
2019-03-31T14:39:20.871Z,40.80
2019-03-31T14:41:50.316Z,40.80
2019-03-31T14:44:19.802Z,41.00
2019-03-31T14:46:49.497Z,40.90
2019-03-31T14:49:19.095Z,40.90
2019-03-31T14:51:48.639Z,42.30
2019-03-31T14:54:18.215Z,41.10
2019-03-31T14:56:48.085Z,41.10
2019-03-31T14:59:17.466Z,40.60
2019-03-31T15:01:47.140Z,41.60
2019-03-31T15:04:16.661Z,41.40
2019-03-31T15:06:47.860Z,42.20
2019-03-31T15:09:17.319Z,41.90
2019-03-31T15:11:46.921Z,41.90
2019-03-31T15:14:16.424Z,41.90
2019-03-31T15:16:48.405Z,42.00
2019-03-31T15:19:17.524Z,42.00
2019-03-31T15:21:47.067Z,41.70
2019-03-31T15:24:16.461Z,42.10
2019-03-31T15:26:46.085Z,41.60
2019-03-31T15:29:17.201Z,41.70
2019-03-31T15:31:46.920Z,42.20
2019-03-31T15:34:16.479Z,42.90
2019-03-31T15:36:47.003Z,42.90
2019-03-31T15:39:16.428Z,42.80
2019-03-31T15:41:45.885Z,42.60
2019-03-31T15:44:15.524Z,42.40
2019-03-31T15:46:45.167Z,43.30
2019-03-31T15:49:14.703Z,43.20
2019-03-31T15:51:46.383Z,43.80
2019-03-31T15:54:16.000Z,44.30
2019-03-31T15:56:45.584Z,44.10
2019-03-31T15:59:15.148Z,44.10
2019-03-31T16:01:44.648Z,44.60
2019-03-31T16:04:14.280Z,45.80
2019-03-31T16:06:43.816Z,45.90
2019-03-31T16:09:23.443Z,46.30
2019-03-31T16:11:53.626Z,45.70
2019-03-31T16:14:14.424Z,45.90
2019-03-31T16:16:43.472Z,45.70
2019-03-31T16:19:12.561Z,46.10
2019-03-31T16:21:44.367Z,45.20
2019-03-31T16:24:13.506Z,45.40
2019-03-31T16:26:43.927Z,45.50
2019-03-31T16:29:12.845Z,45.60
2019-03-31T16:31:42.025Z,45.30
2019-03-31T16:34:11.143Z,45.60
2019-03-31T16:36:40.112Z,45.70
2019-03-31T16:39:09.253Z,45.70
2019-03-31T16:41:38.226Z,46.20
2019-03-31T16:44:07.304Z,46.40
2019-03-31T16:46:40.104Z,46.40
2019-03-31T16:49:09.207Z,46.70
2019-03-31T16:51:38.248Z,46.90
2019-03-31T16:54:07.220Z,47.10
2019-03-31T16:56:36.225Z,47.90
2019-03-31T16:59:05.274Z,48.20
2019-03-31T17:01:34.208Z,48.30
2019-03-31T17:04:03.262Z,48.90
2019-03-31T17:06:32.205Z,48.80
2019-03-31T17:09:01.187Z,48.60
2019-03-31T17:11:30.061Z,48.50
2019-03-31T17:13:58.917Z,49.20
2019-03-31T17:16:27.924Z,49.20
2019-03-31T17:18:56.872Z,49.20
2019-03-31T17:21:26.881Z,49.20
2019-03-31T17:23:55.864Z,49.30
2019-03-31T17:26:24.820Z,49.20
2019-03-31T17:28:53.848Z,49.20
2019-03-31T17:31:23.695Z,49.10
2019-03-31T17:33:52.637Z,49.40
2019-03-31T17:36:21.688Z,49.70
2019-03-31T17:38:50.860Z,49.70
2019-03-31T17:41:20.632Z,50.10
2019-03-31T17:43:49.506Z,50.40
2019-03-31T17:46:18.595Z,50.40
2019-03-31T17:48:47.513Z,50.30
2019-03-31T17:51:16.621Z,50.80
2019-03-31T17:53:47.738Z,50.80
2019-03-31T17:56:17.234Z,51.00
2019-03-31T17:58:46.150Z,51.00
2019-03-31T18:01:15.228Z,51.00
2019-03-31T18:03:44.291Z,51.10
2019-03-31T18:06:13.711Z,51.30
2019-03-31T18:08:42.855Z,51.60
2019-03-31T18:11:11.965Z,52.00
2019-03-31T18:13:40.913Z,52.30
2019-03-31T18:16:09.763Z,52.30
2019-03-31T18:18:38.673Z,52.70
2019-03-31T18:21:07.785Z,53.10
2019-03-31T18:23:36.768Z,53.40
2019-03-31T18:26:05.930Z,53.50
2019-03-31T18:28:34.893Z,53.70
2019-03-31T18:31:03.843Z,53.90
2019-03-31T18:33:32.723Z,54.10
2019-03-31T18:36:01.668Z,54.40
2019-03-31T18:38:30.604Z,54.80
2019-03-31T18:40:59.637Z,55.00
2019-03-31T18:43:28.630Z,55.20
2019-03-31T18:45:57.576Z,55.60
2019-03-31T18:48:26.520Z,55.70
2019-03-31T18:50:55.562Z,55.90
2019-03-31T18:53:36.148Z,56.30
2019-03-31T18:56:12.932Z,56.50
2019-03-31T18:59:03.773Z,56.90
2019-03-31T19:01:42.815Z,57.00
2019-03-31T19:04:33.235Z,57.10
2019-03-31T19:07:11.499Z,57.50
2019-03-31T19:09:53.893Z,57.30
2019-03-31T19:12:31.104Z,57.30
2019-03-31T19:15:10.448Z,57.20
2019-03-31T19:17:51.674Z,57.30
2019-03-31T19:20:39.850Z,57.20
2019-03-31T19:23:40.157Z,57.60
2019-03-31T19:26:26.885Z,57.90
2019-03-31T19:29:16.970Z,58.20
2019-03-31T19:32:12.591Z,58.80
2019-03-31T19:35:06.788Z,58.70
2019-03-31T19:37:54.816Z,59.50
2019-03-31T19:40:43.318Z,59.90
2019-03-31T19:43:24.456Z,60.20
2019-03-31T19:46:15.409Z,60.80
2019-03-31T19:49:01.962Z,61.40
2019-03-31T19:51:50.012Z,61.80
2019-03-31T19:54:29.150Z,63.40
2019-03-31T19:57:15.992Z,64.20
2019-03-31T20:00:03.199Z,65.60
2019-03-31T20:02:43.066Z,66.80
2019-03-31T20:05:37.121Z,68.00
2019-03-31T20:08:31.124Z,68.90
2019-03-31T20:11:13.634Z,68.90
2019-03-31T20:13:50.580Z,69.90
2019-03-31T20:16:47.847Z,71.10
2019-03-31T20:19:38.784Z,72.10
2019-03-31T20:22:13.119Z,73.10
2019-03-31T20:24:58.039Z,74.40
2019-03-31T20:27:44.726Z,75.70
2019-03-31T20:30:32.057Z,77.30
2019-03-31T20:33:23.625Z,80.00
2019-03-31T20:36:09.483Z,80.10
2019-03-31T20:39:09.541Z,82.60
2019-03-31T20:41:56.000Z,86.60
2019-03-31T20:44:25.029Z,90.60
2019-03-31T20:46:53.904Z,92.50
2019-03-31T20:49:22.944Z,94.10
2019-03-31T20:51:57.944Z,96.10
2019-03-31T20:54:26.771Z,98.40
2019-03-31T20:56:55.639Z,99.90
2019-03-31T20:59:24.517Z,99.90
2019-03-31T21:01:53.461Z,99.90
2019-03-31T21:04:22.332Z,99.90
2019-03-31T21:06:51.243Z,99.90
2019-03-31T21:09:20.464Z,99.90
2019-03-31T21:11:49.547Z,99.90
2019-03-31T21:14:18.376Z,99.90
2019-03-31T21:16:47.391Z,99.90
2019-03-31T21:19:19.021Z,99.90
2019-03-31T21:21:46.776Z,99.90
2019-03-31T21:24:15.686Z,99.90
2019-03-31T21:26:45.025Z,99.90
2019-03-31T21:29:13.943Z,99.90
2019-03-31T21:31:43.140Z,99.90
2019-03-31T21:34:12.088Z,99.90
2019-03-31T21:36:41.008Z,99.90
2019-03-31T21:39:09.849Z,99.90
2019-03-31T21:41:38.780Z,99.90
2019-03-31T21:44:07.813Z,99.90
2019-03-31T21:46:36.748Z,99.90
2019-03-31T21:49:05.829Z,99.90
2019-03-31T21:51:34.819Z,99.90
2019-03-31T21:54:03.908Z,99.90
2019-03-31T21:56:32.747Z,99.90
2019-03-31T21:59:01.597Z,99.90
2019-03-31T22:01:31.596Z,99.90
2019-03-31T22:04:00.463Z,99.90
2019-03-31T22:06:29.300Z,99.90
2019-03-31T22:08:58.143Z,99.90
2019-03-31T22:11:28.889Z,99.90
2019-03-31T22:13:57.736Z,99.90
2019-03-31T22:16:26.647Z,99.90
2019-03-31T22:18:55.493Z,99.90
2019-03-31T22:21:24.428Z,99.90
2019-03-31T22:23:58.154Z,99.90
2019-03-31T22:26:24.106Z,99.90
2019-03-31T22:28:53.043Z,99.90
2019-03-31T22:31:22.192Z,99.90
2019-03-31T22:33:51.148Z,99.90
2019-03-31T22:36:22.879Z,99.90
2019-03-31T22:38:52.853Z,99.90
2019-03-31T22:41:21.983Z,99.90
2019-03-31T22:43:50.979Z,99.90
2019-03-31T22:46:20.083Z,99.90
2019-03-31T22:48:52.262Z,99.90
2019-03-31T22:51:21.176Z,99.90
2019-03-31T22:53:50.008Z,99.90
2019-03-31T22:56:19.008Z,99.90
2019-03-31T22:58:47.836Z,99.90
2019-03-31T23:01:16.842Z,99.90
2019-03-31T23:03:45.707Z,99.90
2019-03-31T23:06:14.638Z,99.90
2019-03-31T23:08:43.625Z,99.90
2019-03-31T23:11:12.567Z,99.90
2019-03-31T23:13:41.439Z,99.90
2019-03-31T23:16:10.272Z,99.90
2019-03-31T23:18:39.139Z,99.90
2019-03-31T23:21:08.032Z,99.90
2019-03-31T23:23:37.280Z,99.90
2019-03-31T23:26:06.199Z,99.90
2019-03-31T23:28:37.087Z,99.90
2019-03-31T23:31:05.915Z,99.90
2019-03-31T23:33:34.786Z,99.90
2019-03-31T23:36:03.607Z,99.90
2019-03-31T23:38:32.456Z,99.90
2019-03-31T23:41:01.336Z,99.90
2019-03-31T23:43:30.189Z,99.90
2019-03-31T23:45:59.047Z,99.90
2019-03-31T23:48:28.049Z,99.90
2019-03-31T23:50:56.984Z,99.90
2019-03-31T23:53:25.827Z,99.90
2019-03-31T23:55:54.668Z,99.90
2019-03-31T23:58:23.620Z,99.90
